Time;durP1;ratioP1;P1;durP2;ratioP2;P2;SDS_P1;SDS_P2;PMS_P1;PMS_P2;Temp;Humidity;BMP_temperature;BMP_pressure;BME280_temperature;BME280_humidity;BME280_pressure;Samples;Min_cycle;Max_cycle;Signal;HPM_P1;HPM_P2
2023/12/14 00:00:52;;;;;;;1.10;0.70;;;11.40;71.10;;;;;;7777224;22;20106;-90
2023/12/14 00:03:54;;;;;;;0.57;0.45;;;11.40;71.20;;;;;;7756288;22;20072;-91
2023/12/14 00:06:55;;;;;;;2.03;1.00;;;11.50;71.30;;;;;;7781588;22;20327;-91
2023/12/14 00:10:00;;;;;;;2.53;1.20;;;11.50;71.20;;;;;;7807543;22;20003;-91
2023/12/14 00:13:01;;;;;;;3.38;1.08;;;11.50;71.20;;;;;;7756689;22;20041;-91
2023/12/14 00:16:06;;;;;;;2.05;1.52;;;11.60;71.10;;;;;;7809918;22;20026;-92
2023/12/14 00:19:10;;;;;;;3.97;1.45;;;11.60;71.10;;;;;;7786323;22;20352;-92
2023/12/14 00:22:15;;;;;;;1.95;1.23;;;11.70;71.10;;;;;;7782768;22;20014;-90
2023/12/14 00:25:18;;;;;;;5.43;1.98;;;11.50;70.90;;;;;;7809189;22;20016;-91
2023/12/14 00:28:20;;;;;;;1.58;1.08;;;11.70;70.80;;;;;;7760327;22;20046;-93
2023/12/14 00:31:26;;;;;;;6.00;1.65;;;11.70;70.60;;;;;;7759430;22;20022;-93
2023/12/14 00:34:28;;;;;;;2.47;1.70;;;11.80;70.80;;;;;;7781077;22;19991;-92
2023/12/14 00:37:30;;;;;;;3.50;1.42;;;11.80;70.60;;;;;;7807899;22;20094;-92
2023/12/14 00:40:33;;;;;;;3.55;1.55;;;11.70;70.60;;;;;;7756409;22;20008;-91
2023/12/14 00:43:36;;;;;;;0.70;0.70;;;11.90;70.60;;;;;;7781056;22;20037;-91
2023/12/14 00:46:37;;;;;;;2.25;1.70;;;11.90;70.30;;;;;;7780239;22;20034;-91
2023/12/14 00:49:56;;;;;;;2.92;1.65;;;11.90;70.30;;;;;;7780013;22;20033;-92
2023/12/14 00:52:59;;;;;;;1.13;1.02;;;11.90;70.30;;;;;;7781796;22;20353;-92
2023/12/14 00:56:01;;;;;;;2.13;1.38;;;11.90;70.30;;;;;;7834401;22;20003;-90
2023/12/14 00:59:03;;;;;;;3.72;1.70;;;11.90;70.20;;;;;;7804374;22;20369;-89
2023/12/14 01:02:04;;;;;;;4.43;1.77;;;11.90;70.10;;;;;;7778731;22;20045;-91
2023/12/14 01:05:08;;;;;;;3.58;2.13;;;11.90;70.10;;;;;;7777948;22;20090;-89
2023/12/14 01:08:09;;;;;;;3.33;1.67;;;12.00;70.10;;;;;;7778383;22;20441;-90
2023/12/14 01:11:10;;;;;;;5.05;1.88;;;12.00;70.10;;;;;;7804394;22;20042;-92
2023/12/14 01:14:12;;;;;;;3.05;1.65;;;11.90;69.90;;;;;;7780095;22;20086;-90
2023/12/14 01:17:15;;;;;;;3.92;1.27;;;11.90;70.10;;;;;;7778560;22;20112;-91
2023/12/14 01:20:17;;;;;;;1.25;0.98;;;11.90;70.30;;;;;;7782193;22;20018;-91
2023/12/14 01:23:20;;;;;;;3.95;1.58;;;11.90;70.30;;;;;;7807012;22;20015;-91
2023/12/14 01:26:23;;;;;;;4.43;1.45;;;12.10;70.40;;;;;;7804508;22;20111;-91
2023/12/14 01:29:25;;;;;;;1.63;1.10;;;12.00;70.30;;;;;;7786684;22;20057;-92
2023/12/14 01:32:26;;;;;;;2.83;1.48;;;12.00;70.30;;;;;;7786723;22;20409;-90
2023/12/14 01:35:29;;;;;;;2.33;1.40;;;12.00;70.10;;;;;;7821302;22;20086;-91
2023/12/14 01:38:30;;;;;;;2.67;1.25;;;12.00;70.10;;;;;;7788491;22;20011;-90
2023/12/14 01:41:32;;;;;;;1.30;1.10;;;12.00;70.10;;;;;;7757738;22;20052;-90
2023/12/14 01:44:34;;;;;;;2.28;1.13;;;12.00;70.20;;;;;;7808594;22;20063;-91
2023/12/14 01:47:36;;;;;;;2.33;1.08;;;12.00;70.10;;;;;;7778274;22;20043;-91
2023/12/14 01:50:36;;;;;;;4.90;1.63;;;12.00;70.20;;;;;;7777691;22;20097;-91
2023/12/14 01:53:40;;;;;;;2.80;1.33;;;11.90;70.10;;;;;;7777531;22;20054;-91
2023/12/14 01:56:42;;;;;;;2.83;1.35;;;12.00;70.30;;;;;;7803824;22;20031;-91
2023/12/14 01:59:43;;;;;;;1.70;1.20;;;12.00;70.30;;;;;;7775395;22;20007;-91
2023/12/14 02:02:45;;;;;;;3.80;1.95;;;11.90;70.00;;;;;;7778062;22;20015;-91
2023/12/14 02:05:48;;;;;;;3.78;2.25;;;11.90;70.10;;;;;;7803018;22;20030;-91
2023/12/14 02:08:51;;;;;;;4.72;2.85;;;11.90;70.10;;;;;;7775189;22;20568;-90
2023/12/14 02:11:53;;;;;;;4.22;2.70;;;11.90;70.30;;;;;;7779596;22;20075;-91
2023/12/14 02:14:56;;;;;;;4.28;2.38;;;11.90;70.30;;;;;;7778038;22;20110;-91
2023/12/14 02:18:02;;;;;;;3.83;2.33;;;11.90;70.50;;;;;;7804427;22;20115;-90
2023/12/14 02:21:04;;;;;;;4.40;2.10;;;11.90;70.50;;;;;;7780858;22;20000;-91
2023/12/14 02:24:07;;;;;;;3.63;1.90;;;11.90;70.50;;;;;;7778357;22;20015;-91
2023/12/14 02:27:10;;;;;;;4.47;1.90;;;11.90;70.50;;;;;;7777009;22;20011;-91
2023/12/14 02:30:14;;;;;;;4.15;2.72;;;11.90;70.50;;;;;;7801480;22;20003;-90
2023/12/14 02:33:16;;;;;;;8.38;2.65;;;11.90;70.50;;;;;;7776536;22;20098;-89
2023/12/14 02:36:20;;;;;;;4.25;2.45;;;11.90;70.60;;;;;;7829675;22;20034;-90
2023/12/14 02:39:23;;;;;;;5.40;3.10;;;11.90;70.70;;;;;;7752728;22;20042;-92
2023/12/14 02:42:25;;;;;;;5.15;2.65;;;11.80;70.70;;;;;;7806154;22;20003;-91
2023/12/14 02:45:26;;;;;;;8.43;3.45;;;11.90;70.70;;;;;;7784844;22;20011;-91
2023/12/14 02:48:37;;;;;;;5.00;2.47;;;11.80;70.70;;;;;;7778283;22;20029;-92
2023/12/14 02:51:42;;;;;;;6.03;2.35;;;11.80;70.80;;;;;;7778672;22;20007;-91
2023/12/14 02:54:47;;;;;;;3.97;2.63;;;11.80;70.90;;;;;;7805193;22;20067;-92
2023/12/14 02:57:49;;;;;;;4.78;2.53;;;11.90;71.00;;;;;;7781108;22;20007;-91
2023/12/14 03:00:52;;;;;;;3.38;1.90;;;11.90;71.00;;;;;;7805430;22;20101;-91
2023/12/14 03:03:53;;;;;;;6.55;2.67;;;11.90;70.80;;;;;;7776943;22;20049;-91
2023/12/14 03:07:02;;;;;;;3.13;2.10;;;11.80;70.90;;;;;;7779597;22;20007;-90
2023/12/14 03:10:05;;;;;;;2.78;1.60;;;11.90;71.70;;;;;;7778580;22;19987;-90
2023/12/14 03:13:10;;;;;;;3.75;2.10;;;11.80;70.70;;;;;;7778586;22;20097;-94
2023/12/14 03:16:11;;;;;;;4.20;2.17;;;11.90;70.70;;;;;;7753023;22;20718;-92
2023/12/14 03:19:19;;;;;;;4.68;2.10;;;11.90;70.60;;;;;;7830345;22;20007;-92
2023/12/14 03:22:27;;;;;;;5.18;2.10;;;11.90;70.60;;;;;;7776389;22;20008;-90
2023/12/14 03:25:29;;;;;;;2.72;1.63;;;11.90;70.50;;;;;;7778568;22;20098;-91
2023/12/14 03:28:32;;;;;;;2.45;1.60;;;11.80;70.50;;;;;;7799825;22;20007;-91
2023/12/14 03:31:35;;;;;;;3.40;2.17;;;11.80;70.60;;;;;;7828390;22;20006;-91
2023/12/14 03:34:40;;;;;;;1.95;1.30;;;11.80;70.60;;;;;;7729816;22;20122;-92
2023/12/14 03:37:42;;;;;;;3.28;1.75;;;11.70;70.50;;;;;;7757515;22;20118;-91
2023/12/14 03:40:44;;;;;;;1.40;1.13;;;11.70;70.70;;;;;;7806946;22;20011;-91
2023/12/14 03:43:45;;;;;;;1.98;1.00;;;11.80;70.60;;;;;;7780499;22;20026;-92
2023/12/14 03:46:47;;;;;;;2.00;1.27;;;11.70;70.60;;;;;;7806233;22;20015;-91
2023/12/14 03:49:49;;;;;;;1.50;1.20;;;11.80;70.60;;;;;;7835959;22;20042;-91
2023/12/14 03:52:55;;;;;;;2.53;1.55;;;11.70;70.50;;;;;;7783188;22;20110;-91
2023/12/14 03:56:00;;;;;;;1.60;1.50;;;11.70;70.70;;;;;;7759515;22;20011;-92
2023/12/14 03:59:01;;;;;;;3.55;1.63;;;11.70;70.80;;;;;;7783869;22;20015;-91
2023/12/14 04:02:04;;;;;;;2.15;1.20;;;11.80;70.70;;;;;;7783224;22;20011;-90
2023/12/14 04:05:10;;;;;;;2.03;1.50;;;11.60;70.60;;;;;;7782347;22;20479;-91
2023/12/14 04:08:17;;;;;;;2.83;1.88;;;11.80;70.60;;;;;;7755471;22;20023;-91
2023/12/14 04:11:20;;;;;;;2.75;1.50;;;11.90;70.70;;;;;;7781382;22;20007;-92
2023/12/14 04:14:27;;;;;;;3.67;1.40;;;11.90;70.60;;;;;;7802903;22;20298;-91
2023/12/14 04:17:29;;;;;;;2.60;1.67;;;11.90;70.60;;;;;;7801886;22;20022;-92
2023/12/14 04:20:30;;;;;;;4.10;1.95;;;11.90;70.50;;;;;;7799654;22;20014;-91
2023/12/14 04:23:32;;;;;;;9.65;1.60;;;11.90;70.30;;;;;;7775599;22;20057;-91
2023/12/14 04:26:35;;;;;;;5.43;2.25;;;11.90;70.50;;;;;;7800181;22;20011;-91
2023/12/14 04:29:45;;;;;;;4.68;1.95;;;11.90;70.50;;;;;;7802278;22;20539;-90
2023/12/14 04:32:48;;;;;;;4.28;2.22;;;11.90;70.50;;;;;;7777689;22;20018;-91
2023/12/14 04:35:52;;;;;;;4.07;2.58;;;11.90;70.50;;;;;;7752069;22;20026;-91
2023/12/14 04:38:53;;;;;;;5.38;2.35;;;11.90;70.50;;;;;;7779032;22;20031;-90
2023/12/14 04:41:54;;;;;;;3.53;2.20;;;11.90;70.60;;;;;;7776307;22;20075;-91
2023/12/14 04:44:55;;;;;;;4.88;2.67;;;11.90;70.70;;;;;;7776451;22;20086;-92
2023/12/14 04:47:56;;;;;;;5.97;2.63;;;11.80;70.90;;;;;;7801955;22;20034;-91
2023/12/14 04:50:57;;;;;;;4.30;2.50;;;11.90;71.00;;;;;;7783428;22;20015;-91
2023/12/14 04:53:58;;;;;;;4.90;2.60;;;11.80;71.00;;;;;;7764062;22;20112;-91
2023/12/14 04:57:00;;;;;;;4.00;2.47;;;11.80;71.00;;;;;;7789714;22;20067;-90
2023/12/14 05:00:02;;;;;;;4.00;2.70;;;11.80;71.10;;;;;;7794269;22;20019;-91
2023/12/14 05:03:06;;;;;;;4.57;2.45;;;11.80;71.00;;;;;;7803812;22;20019;-91
2023/12/14 05:06:10;;;;;;;2.92;2.03;;;11.80;71.00;;;;;;7780228;22;20064;-92
2023/12/14 05:09:16;;;;;;;5.45;2.90;;;11.80;71.00;;;;;;7804981;22;20007;-91
2023/12/14 05:12:17;;;;;;;3.38;2.40;;;12.00;71.10;;;;;;7800210;22;20033;-92
2023/12/14 05:15:21;;;;;;;4.70;2.65;;;11.80;70.90;;;;;;7751893;22;20033;-92
2023/12/14 05:18:23;;;;;;;4.18;2.17;;;11.80;71.10;;;;;;7800984;22;20489;-89
2023/12/14 05:21:25;;;;;;;3.83;2.17;;;11.80;71.00;;;;;;7776806;22;19991;-91
2023/12/14 05:24:31;;;;;;;2.42;1.63;;;11.80;71.10;;;;;;7800114;22;20370;-91
2023/12/14 05:27:34;;;;;;;2.95;1.75;;;11.70;71.10;;;;;;7774465;22;20011;-91
2023/12/14 05:30:37;;;;;;;2.70;1.70;;;11.70;71.20;;;;;;7798303;22;20038;-91
2023/12/14 05:33:46;;;;;;;3.22;2.20;;;11.80;71.30;;;;;;7776890;22;20413;-91
2023/12/14 05:36:47;;;;;;;3.35;2.22;;;11.80;71.30;;;;;;7776165;22;20122;-90
2023/12/14 05:39:53;;;;;;;2.38;1.85;;;11.80;71.30;;;;;;7774215;22;20082;-91
2023/12/14 05:42:55;;;;;;;2.42;1.58;;;11.70;71.30;;;;;;7800441;22;20062;-90
2023/12/14 05:46:03;;;;;;;2.30;1.58;;;11.80;71.40;;;;;;7824701;22;20011;-91
2023/12/14 05:49:04;;;;;;;3.45;1.65;;;11.80;71.20;;;;;;7774089;22;20401;-90
2023/12/14 05:52:09;;;;;;;2.33;1.33;;;11.80;71.10;;;;;;7774202;22;20007;-92
2023/12/14 05:55:18;;;;;;;2.85;1.52;;;11.80;70.80;;;;;;7800328;22;20007;-91
2023/12/14 05:58:23;;;;;;;2.17;1.25;;;11.90;70.70;;;;;;7751153;22;20011;-91
2023/12/14 06:01:27;;;;;;;0.55;0.38;;;11.90;70.30;;;;;;7775436;22;20408;-91
2023/12/14 06:04:30;;;;;;;1.33;0.80;;;11.90;70.00;;;;;;7772093;22;20018;-90
2023/12/14 06:07:30;;;;;;;1.27;0.85;;;12.00;69.60;;;;;;7773357;22;20125;-90
2023/12/14 06:10:33;;;;;;;5.43;2.53;;;12.00;69.10;;;;;;7771135;22;20058;-92
2023/12/14 06:13:34;;;;;;;3.38;1.88;;;12.00;68.90;;;;;;7771935;22;20022;-92
2023/12/14 06:16:39;;;;;;;3.78;2.50;;;12.10;68.80;;;;;;7797488;22;20014;-92
2023/12/14 06:19:49;;;;;;;3.80;2.10;;;12.00;68.90;;;;;;7772418;22;20082;-92
2023/12/14 06:22:55;;;;;;;2.30;1.48;;;12.00;69.10;;;;;;7772705;22;20034;-92
2023/12/14 06:25:56;;;;;;;2.88;1.67;;;11.90;69.10;;;;;;7771134;22;20349;-92
2023/12/14 06:28:57;;;;;;;6.05;2.10;;;11.90;69.20;;;;;;7747297;22;20022;-92
2023/12/14 06:32:00;;;;;;;3.80;2.40;;;11.90;69.40;;;;;;7771493;22;20505;-91
2023/12/14 06:35:02;;;;;;;4.05;1.98;;;11.90;69.60;;;;;;7774054;22;20680;-90
2023/12/14 06:38:04;;;;;;;1.73;1.00;;;11.90;69.70;;;;;;7772653;22;20038;-92
2023/12/14 06:41:07;;;;;;;1.77;1.30;;;11.90;69.60;;;;;;7772259;22;20159;-91
2023/12/14 06:44:09;;;;;;;1.77;1.10;;;11.80;69.50;;;;;;7774831;22;20011;-93
2023/12/14 06:47:11;;;;;;;2.88;1.33;;;11.80;69.60;;;;;;7773306;22;20495;-92
2023/12/14 06:50:14;;;;;;;2.28;1.48;;;11.80;69.70;;;;;;7798895;22;20049;-91
2023/12/14 06:53:15;;;;;;;1.15;0.93;;;11.80;69.80;;;;;;7771162;22;20022;-90
2023/12/14 06:56:20;;;;;;;1.63;0.82;;;11.80;69.70;;;;;;7775095;22;20042;-91
